sensor_id;sensor_type;location;lat;lon;timestamp;P1;durP1;ratioP1;P2;durP2;ratioP2
39620;SDS011;25309;48.686;9.170;2023-12-20T00:02:18;2.57;;;1.53;;
39620;SDS011;25309;48.686;9.170;2023-12-20T00:04:45;1.60;;;1.10;;
39620;SDS011;25309;48.686;9.170;2023-12-20T00:07:13;3.07;;;1.70;;
39620;SDS011;25309;48.686;9.170;2023-12-20T00:09:41;2.90;;;1.83;;
39620;SDS011;25309;48.686;9.170;2023-12-20T00:12:08;3.77;;;2.00;;
39620;SDS011;25309;48.686;9.170;2023-12-20T00:14:35;3.50;;;1.80;;
39620;SDS011;25309;48.686;9.170;2023-12-20T00:17:02;1.67;;;1.10;;
39620;SDS011;25309;48.686;9.170;2023-12-20T00:19:29;1.33;;;1.13;;
39620;SDS011;25309;48.686;9.170;2023-12-20T00:21:56;1.03;;;0.93;;
39620;SDS011;25309;48.686;9.170;2023-12-20T00:24:27;0.80;;;0.70;;
39620;SDS011;25309;48.686;9.170;2023-12-20T00:26:54;0.87;;;0.70;;
39620;SDS011;25309;48.686;9.170;2023-12-20T00:29:21;1.47;;;1.10;;
39620;SDS011;25309;48.686;9.170;2023-12-20T00:31:47;0.70;;;0.70;;
39620;SDS011;25309;48.686;9.170;2023-12-20T00:34:14;0.70;;;0.70;;
39620;SDS011;25309;48.686;9.170;2023-12-20T00:36:42;0.70;;;0.70;;
39620;SDS011;25309;48.686;9.170;2023-12-20T00:39:08;0.80;;;0.70;;
39620;SDS011;25309;48.686;9.170;2023-12-20T00:41:37;0.60;;;0.60;;
39620;SDS011;25309;48.686;9.170;2023-12-20T00:44:04;0.60;;;0.57;;
39620;SDS011;25309;48.686;9.170;2023-12-20T00:46:31;1.63;;;0.70;;
39620;SDS011;25309;48.686;9.170;2023-12-20T00:48:58;0.50;;;0.50;;
39620;SDS011;25309;48.686;9.170;2023-12-20T00:51:25;0.83;;;0.70;;
39620;SDS011;25309;48.686;9.170;2023-12-20T00:53:52;1.33;;;0.80;;
39620;SDS011;25309;48.686;9.170;2023-12-20T00:56:21;0.90;;;0.90;;
39620;SDS011;25309;48.686;9.170;2023-12-20T00:58:49;0.90;;;0.83;;
39620;SDS011;25309;48.686;9.170;2023-12-20T01:01:16;0.63;;;0.63;;
39620;SDS011;25309;48.686;9.170;2023-12-20T01:03:43;0.50;;;0.50;;
39620;SDS011;25309;48.686;9.170;2023-12-20T01:06:10;0.50;;;0.50;;
39620;SDS011;25309;48.686;9.170;2023-12-20T01:08:37;0.87;;;0.60;;
39620;SDS011;25309;48.686;9.170;2023-12-20T01:11:05;0.97;;;0.60;;
39620;SDS011;25309;48.686;9.170;2023-12-20T01:13:32;1.30;;;0.70;;
39620;SDS011;25309;48.686;9.170;2023-12-20T01:16:00;0.60;;;0.60;;
39620;SDS011;25309;48.686;9.170;2023-12-20T01:18:27;0.73;;;0.73;;
39620;SDS011;25309;48.686;9.170;2023-12-20T01:20:54;0.90;;;0.70;;
39620;SDS011;25309;48.686;9.170;2023-12-20T01:23:21;0.87;;;0.70;;
39620;SDS011;25309;48.686;9.170;2023-12-20T01:25:48;0.80;;;0.70;;
39620;SDS011;25309;48.686;9.170;2023-12-20T01:28:16;1.23;;;0.90;;
39620;SDS011;25309;48.686;9.170;2023-12-20T01:30:43;0.70;;;0.70;;
39620;SDS011;25309;48.686;9.170;2023-12-20T01:33:12;1.20;;;0.80;;
39620;SDS011;25309;48.686;9.170;2023-12-20T01:35:39;1.60;;;1.00;;
39620;SDS011;25309;48.686;9.170;2023-12-20T01:38:06;1.30;;;0.80;;
39620;SDS011;25309;48.686;9.170;2023-12-20T01:40:33;1.50;;;0.93;;
39620;SDS011;25309;48.686;9.170;2023-12-20T01:43:00;1.33;;;1.13;;
39620;SDS011;25309;48.686;9.170;2023-12-20T01:45:28;1.40;;;0.90;;
39620;SDS011;25309;48.686;9.170;2023-12-20T01:47:55;1.30;;;1.10;;
39620;SDS011;25309;48.686;9.170;2023-12-20T01:50:25;1.50;;;1.07;;
39620;SDS011;25309;48.686;9.170;2023-12-20T01:52:53;1.30;;;1.10;;
39620;SDS011;25309;48.686;9.170;2023-12-20T01:55:24;1.60;;;0.90;;
39620;SDS011;25309;48.686;9.170;2023-12-20T01:57:51;1.50;;;1.00;;
39620;SDS011;25309;48.686;9.170;2023-12-20T02:00:19;1.63;;;0.80;;
39620;SDS011;25309;48.686;9.170;2023-12-20T02:02:50;1.10;;;0.90;;
39620;SDS011;25309;48.686;9.170;2023-12-20T02:05:19;1.10;;;0.97;;
39620;SDS011;25309;48.686;9.170;2023-12-20T02:07:47;1.40;;;1.00;;
39620;SDS011;25309;48.686;9.170;2023-12-20T02:10:15;0.73;;;0.73;;
39620;SDS011;25309;48.686;9.170;2023-12-20T02:12:42;1.33;;;0.90;;
39620;SDS011;25309;48.686;9.170;2023-12-20T02:15:09;1.00;;;0.90;;
39620;SDS011;25309;48.686;9.170;2023-12-20T02:17:36;1.17;;;0.80;;
39620;SDS011;25309;48.686;9.170;2023-12-20T02:20:06;1.37;;;0.87;;
39620;SDS011;25309;48.686;9.170;2023-12-20T02:22:35;1.67;;;0.80;;
39620;SDS011;25309;48.686;9.170;2023-12-20T02:25:02;1.10;;;0.70;;
39620;SDS011;25309;48.686;9.170;2023-12-20T02:27:30;0.83;;;0.77;;
39620;SDS011;25309;48.686;9.170;2023-12-20T02:29:57;0.57;;;0.57;;
39620;SDS011;25309;48.686;9.170;2023-12-20T02:32:24;1.00;;;0.90;;
39620;SDS011;25309;48.686;9.170;2023-12-20T02:34:53;1.43;;;0.80;;
39620;SDS011;25309;48.686;9.170;2023-12-20T02:37:20;0.60;;;0.60;;
39620;SDS011;25309;48.686;9.170;2023-12-20T02:39:48;1.10;;;0.67;;
39620;SDS011;25309;48.686;9.170;2023-12-20T02:42:15;1.73;;;0.83;;
39620;SDS011;25309;48.686;9.170;2023-12-20T02:44:42;1.53;;;0.80;;
39620;SDS011;25309;48.686;9.170;2023-12-20T02:47:09;0.73;;;0.60;;
39620;SDS011;25309;48.686;9.170;2023-12-20T02:49:36;0.83;;;0.70;;
39620;SDS011;25309;48.686;9.170;2023-12-20T02:52:03;0.93;;;0.70;;
39620;SDS011;25309;48.686;9.170;2023-12-20T02:54:31;0.70;;;0.70;;
39620;SDS011;25309;48.686;9.170;2023-12-20T02:56:59;0.60;;;0.57;;
39620;SDS011;25309;48.686;9.170;2023-12-20T02:59:26;0.67;;;0.50;;
39620;SDS011;25309;48.686;9.170;2023-12-20T03:01:53;0.43;;;0.43;;
39620;SDS011;25309;48.686;9.170;2023-12-20T03:04:20;0.83;;;0.80;;
39620;SDS011;25309;48.686;9.170;2023-12-20T03:06:47;1.00;;;0.60;;
39620;SDS011;25309;48.686;9.170;2023-12-20T03:09:14;0.77;;;0.60;;
39620;SDS011;25309;48.686;9.170;2023-12-20T03:11:42;0.97;;;0.60;;
39620;SDS011;25309;48.686;9.170;2023-12-20T03:14:10;0.60;;;0.60;;
39620;SDS011;25309;48.686;9.170;2023-12-20T03:16:37;0.43;;;0.40;;
39620;SDS011;25309;48.686;9.170;2023-12-20T03:19:04;0.30;;;0.30;;
39620;SDS011;25309;48.686;9.170;2023-12-20T03:21:31;1.67;;;0.77;;
39620;SDS011;25309;48.686;9.170;2023-12-20T03:23:57;0.57;;;0.50;;
39620;SDS011;25309;48.686;9.170;2023-12-20T03:26:24;1.10;;;0.67;;
39620;SDS011;25309;48.686;9.170;2023-12-20T03:28:51;0.97;;;0.60;;
39620;SDS011;25309;48.686;9.170;2023-12-20T03:31:19;0.90;;;0.40;;
39620;SDS011;25309;48.686;9.170;2023-12-20T03:33:47;0.60;;;0.47;;
39620;SDS011;25309;48.686;9.170;2023-12-20T03:36:15;0.87;;;0.60;;
39620;SDS011;25309;48.686;9.170;2023-12-20T03:38:42;0.70;;;0.70;;
39620;SDS011;25309;48.686;9.170;2023-12-20T03:41:09;1.27;;;0.60;;
39620;SDS011;25309;48.686;9.170;2023-12-20T03:43:36;0.60;;;0.43;;
39620;SDS011;25309;48.686;9.170;2023-12-20T03:46:03;1.57;;;0.63;;
39620;SDS011;25309;48.686;9.170;2023-12-20T03:48:31;0.30;;;0.30;;
39620;SDS011;25309;48.686;9.170;2023-12-20T03:50:58;0.97;;;0.50;;
39620;SDS011;25309;48.686;9.170;2023-12-20T03:53:25;1.13;;;0.40;;
39620;SDS011;25309;48.686;9.170;2023-12-20T03:55:52;0.40;;;0.40;;
39620;SDS011;25309;48.686;9.170;2023-12-20T03:58:19;0.50;;;0.40;;
39620;SDS011;25309;48.686;9.170;2023-12-20T04:00:46;0.40;;;0.40;;
39620;SDS011;25309;48.686;9.170;2023-12-20T04:03:13;0.90;;;0.47;;
39620;SDS011;25309;48.686;9.170;2023-12-20T04:05:42;0.97;;;0.20;;
39620;SDS011;25309;48.686;9.170;2023-12-20T04:08:09;0.27;;;0.23;;
39620;SDS011;25309;48.686;9.170;2023-12-20T04:10:37;0.60;;;0.23;;
39620;SDS011;25309;48.686;9.170;2023-12-20T04:13:04;0.63;;;0.30;;
39620;SDS011;25309;48.686;9.170;2023-12-20T04:15:31;0.83;;;0.37;;
39620;SDS011;25309;48.686;9.170;2023-12-20T04:17:58;0.10;;;0.10;;
39620;SDS011;25309;48.686;9.170;2023-12-20T04:20:26;0.40;;;0.30;;
39620;SDS011;25309;48.686;9.170;2023-12-20T04:22:54;0.60;;;0.40;;
39620;SDS011;25309;48.686;9.170;2023-12-20T04:25:21;1.53;;;0.50;;
39620;SDS011;25309;48.686;9.170;2023-12-20T04:27:48;0.33;;;0.20;;
39620;SDS011;25309;48.686;9.170;2023-12-20T04:30:15;0.50;;;0.30;;
39620;SDS011;25309;48.686;9.170;2023-12-20T04:32:42;0.33;;;0.20;;
39620;SDS011;25309;48.686;9.170;2023-12-20T04:35:09;0.20;;;0.20;;
39620;SDS011;25309;48.686;9.170;2023-12-20T04:37:36;0.70;;;0.40;;
39620;SDS011;25309;48.686;9.170;2023-12-20T04:40:05;0.77;;;0.30;;
39620;SDS011;25309;48.686;9.170;2023-12-20T04:42:34;0.53;;;0.20;;
39620;SDS011;25309;48.686;9.170;2023-12-20T04:45:01;1.77;;;0.30;;
39620;SDS011;25309;48.686;9.170;2023-12-20T04:47:29;0.73;;;0.47;;
39620;SDS011;25309;48.686;9.170;2023-12-20T04:49:56;0.20;;;0.10;;
39620;SDS011;25309;48.686;9.170;2023-12-20T04:52:23;0.30;;;0.20;;
39620;SDS011;25309;48.686;9.170;2023-12-20T04:54:50;1.03;;;0.50;;
39620;SDS011;25309;48.686;9.170;2023-12-20T04:57:18;0.80;;;0.20;;
39620;SDS011;25309;48.686;9.170;2023-12-20T04:59:45;0.47;;;0.10;;
39620;SDS011;25309;48.686;9.170;2023-12-20T05:02:12;0.40;;;0.40;;
39620;SDS011;25309;48.686;9.170;2023-12-20T05:04:39;0.27;;;0.27;;
39620;SDS011;25309;48.686;9.170;2023-12-20T05:07:07;1.03;;;0.30;;
39620;SDS011;25309;48.686;9.170;2023-12-20T05:09:34;0.30;;;0.30;;
39620;SDS011;25309;48.686;9.170;2023-12-20T05:12:01;0.60;;;0.50;;
39620;SDS011;25309;48.686;9.170;2023-12-20T05:14:30;0.90;;;0.40;;
39620;SDS011;25309;48.686;9.170;2023-12-20T05:16:57;0.93;;;0.40;;
39620;SDS011;25309;48.686;9.170;2023-12-20T05:19:24;0.30;;;0.30;;
39620;SDS011;25309;48.686;9.170;2023-12-20T05:21:51;1.60;;;0.43;;
39620;SDS011;25309;48.686;9.170;2023-12-20T05:24:18;0.83;;;0.30;;
39620;SDS011;25309;48.686;9.170;2023-12-20T05:26:45;0.73;;;0.30;;
39620;SDS011;25309;48.686;9.170;2023-12-20T05:29:15;0.73;;;0.40;;
39620;SDS011;25309;48.686;9.170;2023-12-20T05:31:43;0.10;;;0.10;;
39620;SDS011;25309;48.686;9.170;2023-12-20T05:34:11;0.20;;;0.13;;
39620;SDS011;25309;48.686;9.170;2023-12-20T05:36:38;0.50;;;0.30;;
39620;SDS011;25309;48.686;9.170;2023-12-20T05:39:05;0.73;;;0.47;;
39620;SDS011;25309;48.686;9.170;2023-12-20T05:41:34;0.90;;;0.30;;
39620;SDS011;25309;48.686;9.170;2023-12-20T05:44:00;0.60;;;0.20;;
39620;SDS011;25309;48.686;9.170;2023-12-20T05:46:27;0.60;;;0.20;;
39620;SDS011;25309;48.686;9.170;2023-12-20T05:48:56;0.40;;;0.30;;
39620;SDS011;25309;48.686;9.170;2023-12-20T05:51:23;1.03;;;0.40;;
39620;SDS011;25309;48.686;9.170;2023-12-20T05:53:50;0.70;;;0.40;;
39620;SDS011;25309;48.686;9.170;2023-12-20T05:56:17;1.10;;;0.50;;
39620;SDS011;25309;48.686;9.170;2023-12-20T05:58:44;0.63;;;0.53;;
39620;SDS011;25309;48.686;9.170;2023-12-20T06:01:11;2.60;;;0.60;;
39620;SDS011;25309;48.686;9.170;2023-12-20T06:03:40;0.77;;;0.60;;
39620;SDS011;25309;48.686;9.170;2023-12-20T06:06:09;1.23;;;0.90;;
39620;SDS011;25309;48.686;9.170;2023-12-20T06:08:42;1.23;;;0.70;;
39620;SDS011;25309;48.686;9.170;2023-12-20T06:11:10;2.50;;;0.70;;
39620;SDS011;25309;48.686;9.170;2023-12-20T06:13:37;0.77;;;0.70;;
39620;SDS011;25309;48.686;9.170;2023-12-20T06:16:04;0.70;;;0.70;;
39620;SDS011;25309;48.686;9.170;2023-12-20T06:18:33;1.10;;;0.83;;
39620;SDS011;25309;48.686;9.170;2023-12-20T06:21:00;2.00;;;0.97;;
39620;SDS011;25309;48.686;9.170;2023-12-20T06:23:30;1.60;;;0.87;;
39620;SDS011;25309;48.686;9.170;2023-12-20T06:25:57;1.27;;;1.00;;
39620;SDS011;25309;48.686;9.170;2023-12-20T06:28:23;2.30;;;1.20;;
39620;SDS011;25309;48.686;9.170;2023-12-20T06:30:51;2.90;;;1.40;;
39620;SDS011;25309;48.686;9.170;2023-12-20T06:33:19;2.90;;;1.70;;
39620;SDS011;25309;48.686;9.170;2023-12-20T06:35:47;3.13;;;1.80;;
39620;SDS011;25309;48.686;9.170;2023-12-20T06:38:14;2.13;;;1.33;;
39620;SDS011;25309;48.686;9.170;2023-12-20T06:40:43;1.63;;;1.10;;
39620;SDS011;25309;48.686;9.170;2023-12-20T06:43:10;2.40;;;1.50;;
39620;SDS011;25309;48.686;9.170;2023-12-20T06:45:51;1.20;;;1.10;;
39620;SDS011;25309;48.686;9.170;2023-12-20T06:48:18;0.70;;;0.70;;
39620;SDS011;25309;48.686;9.170;2023-12-20T06:50:46;0.93;;;0.70;;
39620;SDS011;25309;48.686;9.170;2023-12-20T06:53:13;1.37;;;0.87;;
39620;SDS011;25309;48.686;9.170;2023-12-20T06:55:40;1.57;;;1.13;;
39620;SDS011;25309;48.686;9.170;2023-12-20T06:58:08;1.50;;;1.00;;
39620;SDS011;25309;48.686;9.170;2023-12-20T07:00:35;1.27;;;0.80;;
39620;SDS011;25309;48.686;9.170;2023-12-20T07:03:02;1.23;;;0.70;;
39620;SDS011;25309;48.686;9.170;2023-12-20T07:05:30;2.10;;;0.90;;
39620;SDS011;25309;48.686;9.170;2023-12-20T07:07:56;1.10;;;1.00;;
39620;SDS011;25309;48.686;9.170;2023-12-20T07:10:24;0.93;;;0.83;;
39620;SDS011;25309;48.686;9.170;2023-12-20T07:12:51;1.10;;;1.00;;
39620;SDS011;25309;48.686;9.170;2023-12-20T07:15:20;1.23;;;1.03;;
39620;SDS011;25309;48.686;9.170;2023-12-20T07:17:47;0.90;;;0.80;;
39620;SDS011;25309;48.686;9.170;2023-12-20T07:20:14;1.00;;;0.83;;
39620;SDS011;25309;48.686;9.170;2023-12-20T07:22:41;1.13;;;1.00;;
39620;SDS011;25309;48.686;9.170;2023-12-20T07:25:08;1.77;;;1.00;;
39620;SDS011;25309;48.686;9.170;2023-12-20T07:27:35;1.47;;;1.10;;
39620;SDS011;25309;48.686;9.170;2023-12-20T07:30:02;2.83;;;1.40;;
39620;SDS011;25309;48.686;9.170;2023-12-20T07:32:31;2.50;;;1.50;;
39620;SDS011;25309;48.686;9.170;2023-12-20T07:34:58;1.70;;;1.30;;
39620;SDS011;25309;48.686;9.170;2023-12-20T07:37:26;2.17;;;1.37;;
39620;SDS011;25309;48.686;9.170;2023-12-20T07:39:53;1.60;;;1.17;;
39620;SDS011;25309;48.686;9.170;2023-12-20T07:42:20;1.73;;;1.10;;
39620;SDS011;25309;48.686;9.170;2023-12-20T07:44:48;1.33;;;1.00;;
39620;SDS011;25309;48.686;9.170;2023-12-20T07:47:15;1.40;;;1.20;;
39620;SDS011;25309;48.686;9.170;2023-12-20T07:49:48;1.60;;;1.10;;
39620;SDS011;25309;48.686;9.170;2023-12-20T07:52:15;2.20;;;1.33;;
39620;SDS011;25309;48.686;9.170;2023-12-20T07:54:42;2.17;;;1.37;;
39620;SDS011;25309;48.686;9.170;2023-12-20T07:57:09;1.87;;;1.40;;
39620;SDS011;25309;48.686;9.170;2023-12-20T07:59:39;2.57;;;1.47;;
39620;SDS011;25309;48.686;9.170;2023-12-20T08:02:06;2.97;;;1.90;;
39620;SDS011;25309;48.686;9.170;2023-12-20T08:04:33;3.27;;;2.10;;
39620;SDS011;25309;48.686;9.170;2023-12-20T08:07:02;2.80;;;2.10;;
39620;SDS011;25309;48.686;9.170;2023-12-20T08:09:30;3.03;;;2.20;;
39620;SDS011;25309;48.686;9.170;2023-12-20T08:11:58;3.33;;;2.53;;
39620;SDS011;25309;48.686;9.170;2023-12-20T08:14:26;4.30;;;2.60;;
39620;SDS011;25309;48.686;9.170;2023-12-20T08:16:53;4.23;;;2.87;;
39620;SDS011;25309;48.686;9.170;2023-12-20T08:19:20;3.27;;;2.30;;
39620;SDS011;25309;48.686;9.170;2023-12-20T08:21:47;3.47;;;2.50;;
39620;SDS011;25309;48.686;9.170;2023-12-20T08:24:15;3.80;;;2.20;;
39620;SDS011;25309;48.686;9.170;2023-12-20T08:26:42;3.60;;;2.47;;
39620;SDS011;25309;48.686;9.170;2023-12-20T08:29:09;5.33;;;2.83;;
39620;SDS011;25309;48.686;9.170;2023-12-20T08:31:38;4.97;;;3.03;;
39620;SDS011;25309;48.686;9.170;2023-12-20T08:34:05;4.10;;;2.70;;
39620;SDS011;25309;48.686;9.170;2023-12-20T08:36:34;5.27;;;3.00;;
39620;SDS011;25309;48.686;9.170;2023-12-20T08:39:01;5.23;;;3.07;;
39620;SDS011;25309;48.686;9.170;2023-12-20T08:41:31;5.47;;;3.10;;
39620;SDS011;25309;48.686;9.170;2023-12-20T08:43:58;4.70;;;3.13;;
39620;SDS011;25309;48.686;9.170;2023-12-20T08:46:25;4.53;;;3.10;;
39620;SDS011;25309;48.686;9.170;2023-12-20T08:48:52;5.70;;;3.03;;
39620;SDS011;25309;48.686;9.170;2023-12-20T08:51:19;5.00;;;3.80;;
39620;SDS011;25309;48.686;9.170;2023-12-20T08:53:47;5.10;;;3.40;;
39620;SDS011;25309;48.686;9.170;2023-12-20T08:56:15;4.93;;;3.10;;
39620;SDS011;25309;48.686;9.170;2023-12-20T08:58:44;4.93;;;3.70;;
39620;SDS011;25309;48.686;9.170;2023-12-20T09:01:11;5.37;;;3.27;;
39620;SDS011;25309;48.686;9.170;2023-12-20T09:03:39;4.27;;;3.30;;
39620;SDS011;25309;48.686;9.170;2023-12-20T09:06:06;4.27;;;3.00;;
39620;SDS011;25309;48.686;9.170;2023-12-20T09:08:33;3.47;;;2.77;;
39620;SDS011;25309;48.686;9.170;2023-12-20T09:11:00;3.83;;;2.70;;
39620;SDS011;25309;48.686;9.170;2023-12-20T09:13:27;2.83;;;2.13;;
39620;SDS011;25309;48.686;9.170;2023-12-20T09:15:56;3.73;;;2.47;;
39620;SDS011;25309;48.686;9.170;2023-12-20T09:18:24;3.53;;;2.63;;
39620;SDS011;25309;48.686;9.170;2023-12-20T09:20:51;3.53;;;2.60;;
39620;SDS011;25309;48.686;9.170;2023-12-20T09:23:18;3.83;;;2.30;;
39620;SDS011;25309;48.686;9.170;2023-12-20T09:25:45;2.90;;;1.80;;
39620;SDS011;25309;48.686;9.170;2023-12-20T09:28:12;2.53;;;1.87;;
39620;SDS011;25309;48.686;9.170;2023-12-20T09:30:39;3.27;;;1.90;;
39620;SDS011;25309;48.686;9.170;2023-12-20T09:33:08;2.93;;;1.60;;
39620;SDS011;25309;48.686;9.170;2023-12-20T09:35:35;2.63;;;1.63;;
39620;SDS011;25309;48.686;9.170;2023-12-20T09:38:03;5.27;;;1.70;;
39620;SDS011;25309;48.686;9.170;2023-12-20T09:40:30;3.80;;;1.60;;
39620;SDS011;25309;48.686;9.170;2023-12-20T09:43:02;3.37;;;2.00;;
39620;SDS011;25309;48.686;9.170;2023-12-20T09:45:31;3.87;;;1.70;;
39620;SDS011;25309;48.686;9.170;2023-12-20T09:47:59;4.37;;;1.43;;
39620;SDS011;25309;48.686;9.170;2023-12-20T09:50:27;2.20;;;1.43;;
39620;SDS011;25309;48.686;9.170;2023-12-20T09:52:58;5.00;;;1.73;;
39620;SDS011;25309;48.686;9.170;2023-12-20T09:55:28;3.93;;;1.50;;
39620;SDS011;25309;48.686;9.170;2023-12-20T09:57:59;2.80;;;1.27;;
39620;SDS011;25309;48.686;9.170;2023-12-20T10:00:26;3.10;;;1.60;;
39620;SDS011;25309;48.686;9.170;2023-12-20T10:02:56;4.73;;;1.50;;
39620;SDS011;25309;48.686;9.170;2023-12-20T10:05:26;2.63;;;1.53;;
39620;SDS011;25309;48.686;9.170;2023-12-20T10:07:56;2.57;;;1.23;;
39620;SDS011;25309;48.686;9.170;2023-12-20T10:10:24;3.27;;;1.40;;
39620;SDS011;25309;48.686;9.170;2023-12-20T10:13:07;2.10;;;1.17;;
39620;SDS011;25309;48.686;9.170;2023-12-20T10:15:36;3.37;;;1.40;;
39620;SDS011;25309;48.686;9.170;2023-12-20T10:18:04;2.60;;;1.50;;
39620;SDS011;25309;48.686;9.170;2023-12-20T10:20:33;5.47;;;1.83;;
39620;SDS011;25309;48.686;9.170;2023-12-20T10:23:00;3.37;;;1.43;;
39620;SDS011;25309;48.686;9.170;2023-12-20T10:25:28;3.07;;;1.40;;
39620;SDS011;25309;48.686;9.170;2023-12-20T10:28:08;4.17;;;1.30;;
39620;SDS011;25309;48.686;9.170;2023-12-20T10:30:37;3.80;;;1.40;;
39620;SDS011;25309;48.686;9.170;2023-12-20T10:33:05;3.87;;;1.43;;
39620;SDS011;25309;48.686;9.170;2023-12-20T10:35:35;2.63;;;1.13;;
39620;SDS011;25309;48.686;9.170;2023-12-20T10:38:04;4.77;;;1.37;;
39620;SDS011;25309;48.686;9.170;2023-12-20T10:40:33;4.47;;;1.33;;
39620;SDS011;25309;48.686;9.170;2023-12-20T10:43:03;3.47;;;1.00;;
39620;SDS011;25309;48.686;9.170;2023-12-20T10:45:31;4.40;;;1.20;;
39620;SDS011;25309;48.686;9.170;2023-12-20T10:47:58;4.37;;;1.50;;
39620;SDS011;25309;48.686;9.170;2023-12-20T10:50:26;3.83;;;1.20;;
39620;SDS011;25309;48.686;9.170;2023-12-20T10:52:55;5.50;;;1.80;;
39620;SDS011;25309;48.686;9.170;2023-12-20T10:55:23;6.20;;;2.27;;
39620;SDS011;25309;48.686;9.170;2023-12-20T10:57:50;5.07;;;1.97;;
39620;SDS011;25309;48.686;9.170;2023-12-20T11:00:19;5.60;;;2.27;;
39620;SDS011;25309;48.686;9.170;2023-12-20T11:02:49;7.23;;;1.90;;
39620;SDS011;25309;48.686;9.170;2023-12-20T11:05:19;4.93;;;1.90;;
39620;SDS011;25309;48.686;9.170;2023-12-20T11:07:58;6.13;;;2.10;;
39620;SDS011;25309;48.686;9.170;2023-12-20T11:10:31;6.37;;;1.63;;
39620;SDS011;25309;48.686;9.170;2023-12-20T11:13:05;4.77;;;1.80;;
39620;SDS011;25309;48.686;9.170;2023-12-20T11:15:38;5.40;;;1.43;;
39620;SDS011;25309;48.686;9.170;2023-12-20T11:18:06;4.73;;;1.60;;
39620;SDS011;25309;48.686;9.170;2023-12-20T11:20:35;3.70;;;1.63;;
39620;SDS011;25309;48.686;9.170;2023-12-20T11:23:05;5.50;;;1.43;;
39620;SDS011;25309;48.686;9.170;2023-12-20T11:28:15;4.97;;;1.20;;
39620;SDS011;25309;48.686;9.170;2023-12-20T11:30:47;3.77;;;1.30;;
39620;SDS011;25309;48.686;9.170;2023-12-20T11:33:16;5.50;;;1.50;;
39620;SDS011;25309;48.686;9.170;2023-12-20T11:35:47;3.93;;;1.80;;
39620;SDS011;25309;48.686;9.170;2023-12-20T11:38:15;4.30;;;1.60;;
39620;SDS011;25309;48.686;9.170;2023-12-20T11:40:42;5.50;;;1.60;;
39620;SDS011;25309;48.686;9.170;2023-12-20T11:43:10;3.77;;;1.60;;
39620;SDS011;25309;48.686;9.170;2023-12-20T11:45:37;5.47;;;2.03;;
39620;SDS011;25309;48.686;9.170;2023-12-20T11:48:15;4.17;;;1.93;;
39620;SDS011;25309;48.686;9.170;2023-12-20T11:50:42;5.80;;;1.60;;
39620;SDS011;25309;48.686;9.170;2023-12-20T11:53:10;7.20;;;1.90;;
39620;SDS011;25309;48.686;9.170;2023-12-20T11:55:38;5.00;;;2.10;;
39620;SDS011;25309;48.686;9.170;2023-12-20T11:58:05;4.10;;;2.23;;
39620;SDS011;25309;48.686;9.170;2023-12-20T12:00:32;7.90;;;1.70;;
39620;SDS011;25309;48.686;9.170;2023-12-20T12:02:59;5.43;;;1.53;;
39620;SDS011;25309;48.686;9.170;2023-12-20T12:05:28;5.67;;;1.60;;
39620;SDS011;25309;48.686;9.170;2023-12-20T12:07:57;9.20;;;2.20;;
39620;SDS011;25309;48.686;9.170;2023-12-20T12:10:25;4.47;;;1.50;;
39620;SDS011;25309;48.686;9.170;2023-12-20T12:12:53;5.73;;;1.70;;
39620;SDS011;25309;48.686;9.170;2023-12-20T12:15:20;2.97;;;1.70;;
39620;SDS011;25309;48.686;9.170;2023-12-20T12:17:52;3.77;;;1.47;;
39620;SDS011;25309;48.686;9.170;2023-12-20T12:20:20;5.93;;;1.87;;
39620;SDS011;25309;48.686;9.170;2023-12-20T12:22:56;6.40;;;1.80;;
39620;SDS011;25309;48.686;9.170;2023-12-20T12:25:24;4.73;;;1.70;;
39620;SDS011;25309;48.686;9.170;2023-12-20T12:27:51;7.50;;;1.73;;
39620;SDS011;25309;48.686;9.170;2023-12-20T12:30:19;3.87;;;1.40;;
39620;SDS011;25309;48.686;9.170;2023-12-20T12:32:47;6.10;;;2.00;;
39620;SDS011;25309;48.686;9.170;2023-12-20T12:35:14;4.53;;;1.53;;
39620;SDS011;25309;48.686;9.170;2023-12-20T12:37:41;5.07;;;1.50;;
39620;SDS011;25309;48.686;9.170;2023-12-20T12:40:09;3.93;;;1.40;;
39620;SDS011;25309;48.686;9.170;2023-12-20T12:42:37;3.60;;;1.47;;
39620;SDS011;25309;48.686;9.170;2023-12-20T12:45:05;4.53;;;1.37;;
39620;SDS011;25309;48.686;9.170;2023-12-20T12:47:34;2.93;;;1.17;;
39620;SDS011;25309;48.686;9.170;2023-12-20T12:50:01;3.00;;;1.20;;
39620;SDS011;25309;48.686;9.170;2023-12-20T12:52:29;3.37;;;1.47;;
39620;SDS011;25309;48.686;9.170;2023-12-20T12:54:56;4.97;;;1.30;;
39620;SDS011;25309;48.686;9.170;2023-12-20T12:57:23;7.00;;;1.50;;
39620;SDS011;25309;48.686;9.170;2023-12-20T12:59:51;3.73;;;1.30;;
39620;SDS011;25309;48.686;9.170;2023-12-20T13:02:18;4.57;;;1.50;;
39620;SDS011;25309;48.686;9.170;2023-12-20T13:04:46;5.20;;;1.50;;
39620;SDS011;25309;48.686;9.170;2023-12-20T13:07:13;4.17;;;1.20;;
39620;SDS011;25309;48.686;9.170;2023-12-20T13:09:41;5.43;;;1.43;;
39620;SDS011;25309;48.686;9.170;2023-12-20T13:12:08;3.00;;;1.40;;
39620;SDS011;25309;48.686;9.170;2023-12-20T13:14:35;4.23;;;1.40;;
39620;SDS011;25309;48.686;9.170;2023-12-20T13:17:05;4.70;;;1.70;;
39620;SDS011;25309;48.686;9.170;2023-12-20T13:19:32;4.40;;;1.67;;
39620;SDS011;25309;48.686;9.170;2023-12-20T13:22:01;5.27;;;2.03;;
39620;SDS011;25309;48.686;9.170;2023-12-20T13:24:28;5.20;;;1.70;;
39620;SDS011;25309;48.686;9.170;2023-12-20T13:26:55;4.27;;;1.50;;
39620;SDS011;25309;48.686;9.170;2023-12-20T13:29:23;5.93;;;1.53;;
39620;SDS011;25309;48.686;9.170;2023-12-20T13:31:50;5.77;;;1.50;;
39620;SDS011;25309;48.686;9.170;2023-12-20T13:34:17;3.90;;;1.53;;
39620;SDS011;25309;48.686;9.170;2023-12-20T13:36:45;5.33;;;1.40;;
39620;SDS011;25309;48.686;9.170;2023-12-20T13:39:15;4.03;;;1.50;;
39620;SDS011;25309;48.686;9.170;2023-12-20T13:41:43;3.80;;;1.57;;
39620;SDS011;25309;48.686;9.170;2023-12-20T13:44:09;3.73;;;1.50;;
39620;SDS011;25309;48.686;9.170;2023-12-20T13:46:38;5.73;;;1.40;;
39620;SDS011;25309;48.686;9.170;2023-12-20T13:49:05;4.37;;;1.53;;
39620;SDS011;25309;48.686;9.170;2023-12-20T13:51:32;4.20;;;1.33;;
39620;SDS011;25309;48.686;9.170;2023-12-20T13:53:59;6.00;;;1.60;;
39620;SDS011;25309;48.686;9.170;2023-12-20T13:56:27;6.07;;;1.63;;
39620;SDS011;25309;48.686;9.170;2023-12-20T13:58:54;5.27;;;1.50;;
39620;SDS011;25309;48.686;9.170;2023-12-20T14:01:22;2.23;;;1.10;;
39620;SDS011;25309;48.686;9.170;2023-12-20T14:03:50;3.23;;;1.10;;
39620;SDS011;25309;48.686;9.170;2023-12-20T14:06:17;4.67;;;1.23;;
39620;SDS011;25309;48.686;9.170;2023-12-20T14:08:44;3.17;;;1.17;;
39620;SDS011;25309;48.686;9.170;2023-12-20T14:11:11;3.23;;;1.60;;
39620;SDS011;25309;48.686;9.170;2023-12-20T14:13:41;2.30;;;1.17;;
39620;SDS011;25309;48.686;9.170;2023-12-20T14:16:08;4.27;;;1.40;;
39620;SDS011;25309;48.686;9.170;2023-12-20T14:18:37;2.73;;;1.00;;
39620;SDS011;25309;48.686;9.170;2023-12-20T14:21:04;4.47;;;1.43;;
39620;SDS011;25309;48.686;9.170;2023-12-20T14:23:32;4.13;;;1.30;;
39620;SDS011;25309;48.686;9.170;2023-12-20T14:26:02;4.50;;;1.10;;
39620;SDS011;25309;48.686;9.170;2023-12-20T14:28:30;6.63;;;1.50;;
39620;SDS011;25309;48.686;9.170;2023-12-20T14:30:58;3.00;;;1.50;;
39620;SDS011;25309;48.686;9.170;2023-12-20T14:33:25;3.23;;;1.20;;
39620;SDS011;25309;48.686;9.170;2023-12-20T14:35:52;4.57;;;1.37;;
39620;SDS011;25309;48.686;9.170;2023-12-20T14:38:19;4.40;;;1.57;;
39620;SDS011;25309;48.686;9.170;2023-12-20T14:40:46;4.80;;;1.30;;
39620;SDS011;25309;48.686;9.170;2023-12-20T14:43:13;6.70;;;1.53;;
39620;SDS011;25309;48.686;9.170;2023-12-20T14:45:40;4.30;;;1.33;;
39620;SDS011;25309;48.686;9.170;2023-12-20T14:48:09;5.10;;;1.30;;
39620;SDS011;25309;48.686;9.170;2023-12-20T14:50:36;3.47;;;1.40;;
39620;SDS011;25309;48.686;9.170;2023-12-20T14:53:03;3.50;;;1.30;;
39620;SDS011;25309;48.686;9.170;2023-12-20T14:55:30;4.23;;;1.30;;